Maryfield, Canada
Current Conditions -  °F | °C
As of 12:00 AM on Sunday 21 Dec 2014 (Local Time) from CYBR Reporting Station
Haze Haze  
Wind Chill: 25°   Ceiling: 300
Heat Index: 25°   Visibility: 1mi
Dew Point: 23°   Wind: 3mph
Humidity: 93%   Direction: 100°E
Pressure: 29.72"   Gusts: NA
Location:  49.83°N, 101.53°W
Report Text: CYBR 210600Z 10003KT 1SM BR BKN003 OVC008 M04/M05 A2972 RMK ST5ST3 SLP090
Loading
Personal Weather Stations






























Interactive Weather Map New forecast layout! Learn more

10-Day Weather Forecast

Advertisements
Track Severe Weather on mobile